Latest Coastal Weather Observations for Esperance

IDW60701

Issued at 9:53 pm WST Monday 4 May 2026 (issued every 10 minutes, with the page automatically refreshed every 10 minutes)

About coastal observations | Map of coastal stations | Coastal observations for WA | Marine services | Other Formats
Station Details ID: 009789 Name: ESPERANCE Lat: -33.83 Lon: 121.89 Height: 25.0 m
Data from the previous 72 hours. | See also: Recent months at Esperance
Date/Time
WST
Wind Sea
Height
m
Swell Vis
km
Cloud Weather Temp
°C
Press
MSL
hPa
Rain since
9am
mm
Dir  Spd
kts
Gust
kts
Height
m
Period
s
Dir
04/09:30pm SSE 5 7 - - - - 10 Mostly clear - 14.2 1028.7 0.0
04/09:00pm SW 3 5 - - - - 10 Mostly cloudy - 14.0 1028.7 0.0
04/08:30pm SW 6 8 - - - - 10 Partly cloudy - 14.1 1028.9 0.0
04/08:00pm SSW 8 11 - - - - 10 Cloudy - 14.2 1028.8 0.0
04/07:30pm SSW 7 9 - - - - 10 Partly cloudy - 14.8 1028.7 0.0
04/07:00pm S 6 8 - - - - 10 Partly cloudy - 15.2 1028.6 0.0
04/06:30pm S 5 8 - - - - 10 Mostly clear - 15.5 1028.3 0.0
04/06:00pm SSE 8 11 - - - - 10 Cloudy - 15.7 1028.0 0.0
04/05:30pm WSW 4 5 - - - - 10 Cloudy - 16.0 1027.8 0.0
04/05:00pm WSW 4 7 - - - - 10 Partly cloudy - 16.3 1027.6 0.0
04/04:30pm SW 6 9 - - - - 10 Mostly clear - 16.6 1027.5 0.0
04/04:00pm SSE 7 10 - - - - 10 Partly cloudy - 16.4 1027.4 0.0
04/03:30pm SSW 5 8 - - - - 10 Mostly clear - 17.1 1027.3 0.0
04/03:00pm SSW 7 11 - - - - 10 Cloudy - 17.2 1027.2 0.0
04/02:30pm SSW 8 11 - - - - 10 Cloudy - 17.3 1026.9 0.0
04/02:00pm S 7 9 - - - - 10 Cloudy - 17.6 1026.9 0.0
04/01:30pm SSW 7 11 - - - - 10 Cloudy - 17.6 1026.8 0.0
04/01:00pm SSW 6 10 - - - - 10 Cloudy - 17.8 1026.9 0.0
04/12:30pm SSW 7 11 - - - - 10 Cloudy - 17.7 1027.0 0.0
04/12:00pm S 7 11 - - - - 10 Cloudy - 17.5 1027.4 0.0
04/11:30am S 8 11 - - - - 10 Cloudy - 17.4 1027.6 0.0
04/11:00am S 8 11 - - - - 10 Partly cloudy - 17.3 1028.0 0.0
04/10:30am S 7 12 - - - - 10 Cloudy - 17.3 1028.2 0.0
04/10:00am S 7 9 - - - - 10 Cloudy - 17.3 1028.2 0.0
04/09:30am S 8 11 - - - - 10 Cloudy - 17.3 1028.2 0.0
04/09:00am SSW 3 5 - - - - 10 Cloudy - 16.5 1028.3 0.4
04/08:30am SW 3 5 - - - - 10 Cloudy - 15.7 1028.1 0.4
04/08:00am S 5 7 - - - - 10 Partly cloudy - 15.4 1027.9 0.4
04/07:30am SW 6 8 - - - - 10 Partly cloudy - 15.4 1027.6 0.4
04/07:00am SW 4 5 - - - - 10 Mostly clear - 14.1 1027.4 0.4
04/06:30am S 11 17 - - - - 10 Mostly clear - 14.2 1027.3 0.4
04/06:00am S 6 9 - - - - 10 Cloudy - 15.0 1027.0 0.4
04/05:30am SSE 11 15 - - - - 10 Cloudy - 15.1 1026.9 0.4
04/05:00am S 6 8 - - - - 10 Cloudy - 16.0 1026.8 0.4
04/04:30am S 6 9 - - - - 10 Cloudy - 16.0 1026.7 0.4
04/04:00am S 8 10 - - - - 10 Cloudy - 16.1 1026.4 0.4
04/03:30am S 9 12 - - - - 10 Cloudy - 16.1 1026.0 0.4
04/03:00am S 6 9 - - - - 10 Cloudy - 15.8 1025.9 0.4
04/02:30am S 8 11 - - - - 10 Cloudy - 15.9 1026.0 0.4
04/02:00am S 8 13 - - - - 10 Mostly clear - 16.2 1026.0 0.4
04/01:30am S 9 13 - - - - 10 Mostly clear - 16.0 1026.0 0.4
04/01:00am S 4 6 - - - - 10 Cloudy - 15.5 1026.0 0.4
04/12:30am S 8 11 - - - - 10 Cloudy - 15.7 1025.9 0.4
04/12:00am S 6 9 - - - - 10 Cloudy - 15.8 1025.8 0.4
 
Date/Time
WST
Wind Sea
Height
m
Swell Vis
km
Cloud Weather Temp
°C
Press
MSL
hPa
Rain since
9am
mm
Dir  Spd
kts
Gust
kts
Height
m
Period
s
Dir
03/11:30pm S 7 11 - - - - 10 Mostly clear - 15.7 1025.7 0.4
03/11:00pm SSW 6 8 - - - - 10 Partly cloudy - 15.5 1025.7 0.4
03/10:30pm S 7 10 - - - - 10 Mostly clear - 15.5 1025.8 0.4
03/10:00pm S 8 12 - - - - 10 Mostly clear - 15.4 1026.0 0.4
03/09:30pm S 7 11 - - - - 10 Mostly clear - 15.2 1026.0 0.4
03/09:00pm SSW 6 8 - - - - 10 Cloudy - 14.8 1025.9 0.4
03/08:30pm SSW 7 9 - - - - 10 Mostly clear - 14.7 1025.8 0.4
03/08:09pm S 9 13 - - - - 10 Mostly clear - 14.8 1025.7 0.4
03/08:03pm S 9 15 - - - - 10 Partly cloudy - 14.8 1025.8 0.4
03/08:00pm SSW 8 15 - - - - 10 Partly cloudy - 14.8 1025.8 0.4
03/07:59pm SSW 8 15 - - - - 10 Partly cloudy - 14.8 1025.8 0.4
03/07:45pm SW 7 12 - - - - 7 Mostly clear - 14.7 1025.7 0.2
03/07:30pm SSW 7 11 - - - - 10 Partly cloudy - 14.6 1025.7 0.0
03/07:19pm SSW 9 13 - - - - 10 Mostly clear - 14.6 1025.6 0.0
03/07:03pm SSW 7 13 - - - - 7 Mostly clear - 15.3 1025.4 0.0
03/07:00pm SW 6 13 - - - - 10 Mostly clear - 15.6 1025.6 0.0
03/06:30pm SW 7 11 - - - - 10 Partly cloudy - 15.4 1025.2 0.0
03/06:00pm SW 6 9 - - - - 10 Cloudy - 15.6 1025.0 0.0
03/05:30pm SW 7 11 - - - - 10 Mostly clear - 15.7 1024.8 0.0
03/05:00pm SW 7 11 - - - - 10 Mostly clear - 16.1 1024.6 0.0
03/04:30pm SW 9 15 - - - - 10 Mostly clear - 16.1 1024.4 0.0
03/04:00pm SW 9 15 - - - - 10 Partly cloudy - 16.7 1024.3 0.0
03/03:30pm SW 9 15 - - - - 10 Mostly clear - 16.8 1024.1 0.0
03/03:00pm SW 9 16 - - - - 10 Cloudy - 17.1 1024.0 0.0
03/02:30pm SW 9 14 - - - - 10 Mostly clear - 17.5 1023.9 0.0
03/02:00pm SW 10 16 - - - - 10 Mostly clear - 17.5 1023.8 0.0
03/01:30pm SW 9 15 - - - - 10 Partly cloudy - 17.7 1023.8 0.0
03/01:00pm SSW 10 17 - - - - 10 Mostly clear - 17.9 1023.8 0.0
03/12:30pm SW 9 14 - - - - 10 Partly cloudy - 17.5 1024.0 0.0
03/12:00pm SSW 9 15 - - - - 10 Partly cloudy - 17.9 1024.1 0.0
03/11:30am SSW 10 14 - - - - - Partly cloudy - 18.0 1024.4 0.0
03/11:00am S 9 15 - - - - 10 Partly cloudy - 17.7 1024.4 0.0
03/10:30am SSW 12 19 - - - - 10 Partly cloudy - 16.6 1024.6 0.0
03/10:00am SSW 9 13 - - - - 10 Mostly clear - 17.5 1024.4 0.0
03/09:30am S 9 13 - - - - - - - 17.4 1024.4 0.0
03/09:00am SSW 11 15 - - - - 10 Mostly clear - 17.2 1024.2 4.4
03/08:30am S 9 15 - - - - 10 Mostly clear - 16.7 1024.0 4.4
03/08:00am S 9 14 - - - - 10 Partly cloudy - 15.6 1023.7 4.4
03/07:30am S 11 17 - - - - 10 Partly cloudy - 16.0 1023.1 4.4
03/07:00am S 11 16 - - - - 10 Mostly clear - 15.0 1022.8 4.4
03/06:30am SW 4 6 - - - - 10 Partly cloudy - 14.4 1022.5 4.4
03/06:00am SSW 8 11 - - - - 10 Cloudy - 14.6 1022.0 4.4
03/05:30am SSW 8 12 - - - - 10 Partly cloudy - 14.4 1022.0 4.4
03/05:00am SSW 9 14 - - - - 10 Mostly clear - 14.7 1021.6 4.4
03/04:30am S 8 11 - - - - 10 Mostly clear - 14.7 1021.3 4.4
03/04:00am SSW 8 13 - - - - 10 Mostly clear - 14.8 1021.1 4.4
03/03:30am SSW 9 13 - - - - 10 Mostly clear - 14.5 1020.9 4.4
03/03:00am SSW 10 17 - - - - 10 Partly cloudy - 14.3 1020.9 4.4
03/02:30am SSW 8 12 - - - - 10 Partly cloudy - 14.3 1020.8 4.4
03/02:00am SW 7 11 - - - - 10 Mostly clear - 13.9 1020.8 4.4
03/01:30am SW 7 11 - - - - 10 Partly cloudy - 14.0 1020.9 4.4
03/01:00am SW 8 14 - - - - 10 Mostly clear - 14.2 1020.9 4.4
03/12:30am SW 6 9 - - - - 10 Partly cloudy - 14.2 1020.8 4.2
03/12:00am SW 6 10 - - - - 10 Cloudy - 14.3 1020.7 4.2
 
Date/Time
WST
Wind Sea
Height
m
Swell Vis
km
Cloud Weather Temp
°C
Press
MSL
hPa
Rain since
9am
mm
Dir  Spd
kts
Gust
kts
Height
m
Period
s
Dir
02/11:30pm WSW 7 10 - - - - 10 Mostly clear - 14.1 1020.7 4.2
02/11:00pm SW 6 9 - - - - 10 Mostly clear - 14.0 1020.9 4.2
02/10:30pm SW 6 9 - - - - 10 Mostly clear - 14.2 1021.0 4.2
02/10:23pm WSW 6 11 - - - - 10 Partly cloudy - 14.1 1021.0 4.2
02/10:07pm SSW 6 9 - - - - 7 Partly cloudy - 14.1 1021.2 4.2
02/10:00pm SSW 7 12 - - - - 10 Mostly clear - 14.0 1021.2 3.8
02/09:30pm WSW 7 10 - - - - 10 Mostly clear - 14.0 1021.0 3.8
02/09:00pm WSW 8 12 - - - - 10 Mostly cloudy Recent precip. 13.9 1021.0 3.6
02/08:35pm WSW 7 13 - - - - 10 Mostly clear - 13.5 1021.0 3.6
02/08:30pm WSW 7 13 - - - - 10 Mostly clear - 13.5 1021.0 3.6
02/08:21pm W 4 9 - - - - 6 Mostly clear - 13.4 1021.0 3.6
02/08:00pm NW 5 7 - - - - 10 Mostly clear - 13.3 1021.0 3.2
02/07:54pm WNW 6 9 - - - - 10 Mostly clear - 13.4 1021.0 3.2
02/07:38pm WSW 5 7 - - - - 7 Partly cloudy - 13.5 1021.1 3.2
02/07:37pm WSW 5 7 - - - - 9 Mostly clear - 13.5 1021.1 3.2
02/07:30pm WSW 6 9 - - - - 10 Mostly clear - 13.4 1021.1 3.0
02/07:19pm W 5 9 - - - - 7 Mostly clear - 13.3 1021.2 2.8
02/07:17pm W 5 9 - - - - 10 Mostly clear - 13.4 1021.2 2.8
02/07:00pm WNW 6 8 - - - - 7 Partly cloudy - 13.3 1021.1 2.6
02/06:30pm WNW 5 7 - - - - 10 Partly cloudy - 13.4 1021.0 2.4
02/06:00pm WSW 5 7 - - - - 10 Cloudy Recent precip. 13.3 1020.8 2.4
02/05:30pm WSW 7 10 - - - - 10 Mostly clear - 13.5 1020.6 2.4
02/05:00pm W 8 13 - - - - 10 Partly cloudy - 14.6 1020.5 2.2
02/04:30pm SW 8 13 - - - - 10 Mostly clear - 15.0 1020.5 2.2
02/04:00pm SW 8 13 - - - - 10 Mostly clear - 15.2 1020.5 2.2
02/03:30pm WSW 9 14 - - - - 10 Partly cloudy - 15.3 1020.5 2.2
02/03:00pm SW 10 16 - - - - 10 Cloudy - 15.6 1020.5 2.2
02/02:30pm SSW 10 21 - - - - 10 Mostly clear - 15.3 1020.3 2.2
02/02:00pm SSW 10 16 - - - - 10 Mostly clear - 15.1 1020.2 2.2
02/01:42pm SSW 11 18 - - - - 10 Mostly clear - 14.3 1020.1 2.2
02/01:30pm SSW 12 20 - - - - 5 Mostly clear - 13.3 1020.2 2.2
02/01:23pm SSW 11 20 - - - - 7 Mostly clear - 14.2 1020.2 2.0
02/01:00pm SSW 12 18 - - - - 10 Mostly clear - 14.9 1020.2 1.4
02/12:30pm SSW 12 20 - - - - 10 Partly cloudy - 14.7 1020.3 1.4
02/12:07pm SSW 9 14 - - - - 10 Partly cloudy - 13.8 1020.8 1.4
02/12:00pm SSW 9 17 - - - - 10 Cloudy Rain 13.1 1020.8 1.4
02/11:51am SW 14 25 - - - - 5 Mostly clear - 12.5 1021.1 1.4
02/11:48am SW 13 25 - - - - 7 Mostly clear - 12.9 1021.2 1.2
02/11:46am SW 11 25 - - - - 10 Partly cloudy - 13.7 1021.1 0.8
02/11:40am SW 7 11 - - - - 10 Partly cloudy - 13.9 1020.9 0.4
02/11:30am SW 10 18 - - - - 7 Mostly clear - 13.0 1021.1 0.4
02/11:27am SW 12 20 - - - - 7 Mostly clear - 13.1 1021.1 0.4
02/11:00am SSW 13 24 - - - - 10 Mostly clear - 14.8 1021.0 0.0
02/10:30am SSW 14 23 - - - - 10 Mostly clear - 14.0 1021.1 0.0
02/10:00am SSW 13 20 - - - - 10 Partly cloudy - 15.8 1020.9 0.0
02/09:30am SSW 11 18 - - - - 10 Mostly clear - 15.5 1020.6 0.0
02/09:00am SSW 13 23 - - - - 10 Cloudy - 13.9 1020.8 8.4
02/08:30am SSW 12 19 - - - - 10 Mostly clear - 15.0 1020.5 8.4
02/08:00am SSW 11 19 - - - - 10 Mostly clear - 14.5 1020.3 8.4
02/07:30am SSW 13 19 - - - - 10 Mostly clear - 14.3 1019.9 8.4
02/07:00am SSW 13 24 - - - - 10 Mostly clear - 13.6 1019.6 8.4
02/06:30am SSW 11 17 - - - - 10 Partly cloudy - 13.6 1019.2 8.4
02/06:00am SSW 13 20 - - - - 10 Mostly clear Recent precip. 13.5 1018.9 8.4
02/05:30am SSW 12 18 - - - - 10 Partly cloudy - 12.7 1018.8 8.4
02/05:00am SSW 10 16 - - - - 10 Partly cloudy - 13.3 1018.5 8.0
02/04:30am S 9 15 - - - - 10 Partly cloudy - 13.0 1018.5 8.0
02/04:21am S 11 17 - - - - 10 Partly cloudy - 12.7 1018.5 8.0
02/04:03am SSW 12 22 - - - - 7 Partly cloudy - 13.3 1018.4 8.0
02/04:00am SSW 10 17 - - - - 10 Mostly clear - 14.3 1018.4 7.2
02/03:30am SSW 13 21 - - - - 10 Mostly clear - 14.3 1018.2 7.2
02/03:00am SSW 10 17 - - - - 10 Cloudy - 14.2 1018.3 7.2
02/02:30am SSW 13 21 - - - - 10 Partly cloudy - 14.5 1018.3 7.2
02/02:00am SSW 11 15 - - - - 10 Partly cloudy - 14.4 1018.5 7.2
02/01:30am SSW 12 21 - - - - 10 Partly cloudy - 14.5 1018.2 7.2
02/01:00am SSW 14 21 - - - - 10 Mostly clear - 14.4 1018.4 7.2
02/12:30am SSW 13 21 - - - - 10 Mostly clear - 14.3 1018.3 7.2
02/12:00am SSW 15 29 - - - - 10 Mostly clear - 14.3 1018.2 7.2
 
Date/Time
WST
Wind Sea
Height
m
Swell Vis
km
Cloud Weather Temp
°C
Press
MSL
hPa
Rain since
9am
mm
Dir  Spd
kts
Gust
kts
Height
m
Period
s
Dir
01/11:30pm SSW 17 28 - - - - 10 Mostly clear - 14.3 1018.1 7.2
01/11:00pm SSW 15 25 - - - - 10 Mostly clear - 14.2 1018.1 7.2
01/10:30pm S 15 27 - - - - 10 Partly cloudy - 13.5 1018.2 7.2
01/10:29pm S 15 27 - - - - 10 Partly cloudy - 13.5 1018.2 7.2
01/10:00pm SSW 13 20 - - - - 10 Mostly clear - 13.9 1018.1 7.0

Other formats

Comma delimited format used in spreadsheet applications
http://www.bom.gov.au/fwo/IDW60701/IDW60701.94638.axf

JavaScript Object Notation format (JSON) in row-major order
http://www.bom.gov.au/fwo/IDW60701/IDW60701.94638.json

Data quality

Most of these data are generated automatically and are frequently updated. Quality checks on data are not normally performed. It is possible for incorrect values to appear. Refer to information at About Latest Weather Observations and please check the disclaimer before using these data.